sensor_id;sensor_type;location;lat;lon;timestamp;pressure;altitude;pressure_sealevel;temperature;humidity
16120;BME280;12670;53.502;10.252;2023-03-18T00:01:17;100395.78;;;11.86;84.94
16120;BME280;12670;53.502;10.252;2023-03-18T00:04:20;100400.94;;;11.89;85.65
16120;BME280;12670;53.502;10.252;2023-03-18T00:07:24;100403.91;;;11.83;84.92
16120;BME280;12670;53.502;10.252;2023-03-18T00:10:27;100400.94;;;11.89;86.07
16120;BME280;12670;53.502;10.252;2023-03-18T00:13:30;100405.38;;;11.89;85.79
16120;BME280;12670;53.502;10.252;2023-03-18T00:16:35;100398.25;;;11.72;85.97
16120;BME280;12670;53.502;10.252;2023-03-18T00:19:38;100389.97;;;11.78;85.51
16120;BME280;12670;53.502;10.252;2023-03-18T00:22:40;100393.88;;;11.71;86.17
16120;BME280;12670;53.502;10.252;2023-03-18T00:25:46;100384.13;;;11.71;86.43
16120;BME280;12670;53.502;10.252;2023-03-18T00:28:48;100384.72;;;11.77;86.21
16120;BME280;12670;53.502;10.252;2023-03-18T00:31:52;100389.91;;;11.80;86.46
16120;BME280;12670;53.502;10.252;2023-03-18T00:34:55;100386.44;;;11.78;86.89
16120;BME280;12670;53.502;10.252;2023-03-18T00:37:58;100387.63;;;11.72;87.43
16120;BME280;12670;53.502;10.252;2023-03-18T00:41:00;100389.13;;;11.60;88.31
16120;BME280;12670;53.502;10.252;2023-03-18T00:44:11;100391.22;;;11.71;88.47
16120;BME280;12670;53.502;10.252;2023-03-18T00:47:16;100397.47;;;11.70;88.54
16120;BME280;12670;53.502;10.252;2023-03-18T00:50:19;100391.94;;;11.74;89.13
16120;BME280;12670;53.502;10.252;2023-03-18T00:53:21;100394.69;;;11.56;90.16
16120;BME280;12670;53.502;10.252;2023-03-18T00:56:28;100393.75;;;11.74;89.97
16120;BME280;12670;53.502;10.252;2023-03-18T00:59:31;100401.19;;;11.67;90.61
16120;BME280;12670;53.502;10.252;2023-03-18T01:02:35;100407.03;;;11.57;91.37
16120;BME280;12670;53.502;10.252;2023-03-18T01:05:38;100405.91;;;11.61;91.67
16120;BME280;12670;53.502;10.252;2023-03-18T01:08:41;100408.59;;;11.43;92.14
16120;BME280;12670;53.502;10.252;2023-03-18T01:11:44;100399.50;;;11.30;93.31
16120;BME280;12670;53.502;10.252;2023-03-18T01:14:47;100407.41;;;11.49;92.86
16120;BME280;12670;53.502;10.252;2023-03-18T01:17:51;100396.78;;;11.49;92.87
16120;BME280;12670;53.502;10.252;2023-03-18T01:20:57;100399.38;;;11.33;93.93
16120;BME280;12670;53.502;10.252;2023-03-18T01:23:59;100405.31;;;11.38;94.94
16120;BME280;12670;53.502;10.252;2023-03-18T01:27:03;100398.34;;;11.53;94.18
16120;BME280;12670;53.502;10.252;2023-03-18T01:30:08;100397.09;;;11.60;94.47
16120;BME280;12670;53.502;10.252;2023-03-18T01:33:12;100392.50;;;11.64;94.28
16120;BME280;12670;53.502;10.252;2023-03-18T01:36:16;100395.16;;;11.46;94.98
16120;BME280;12670;53.502;10.252;2023-03-18T01:39:18;100388.13;;;11.45;95.27
16120;BME280;12670;53.502;10.252;2023-03-18T01:42:21;100393.75;;;11.57;95.22
16120;BME280;12670;53.502;10.252;2023-03-18T01:45:26;100404.53;;;11.54;95.33
16120;BME280;12670;53.502;10.252;2023-03-18T01:48:34;100393.53;;;11.44;95.56
16120;BME280;12670;53.502;10.252;2023-03-18T01:51:42;100403.28;;;11.43;95.01
16120;BME280;12670;53.502;10.252;2023-03-18T01:54:54;100405.00;;;11.44;94.35
16120;BME280;12670;53.502;10.252;2023-03-18T01:57:58;100400.63;;;11.43;95.49
16120;BME280;12670;53.502;10.252;2023-03-18T02:01:06;100410.22;;;11.46;95.20
16120;BME280;12670;53.502;10.252;2023-03-18T02:04:12;100410.00;;;11.33;96.11
16120;BME280;12670;53.502;10.252;2023-03-18T02:07:15;100411.19;;;11.45;95.89
16120;BME280;12670;53.502;10.252;2023-03-18T02:10:21;100411.50;;;11.56;94.85
16120;BME280;12670;53.502;10.252;2023-03-18T02:13:24;100416.72;;;11.40;96.20
16120;BME280;12670;53.502;10.252;2023-03-18T02:16:31;100408.28;;;11.50;97.02
16120;BME280;12670;53.502;10.252;2023-03-18T02:19:49;100420.69;;;11.49;97.32
16120;BME280;12670;53.502;10.252;2023-03-18T02:23:02;100427.78;;;11.48;98.46
16120;BME280;12670;53.502;10.252;2023-03-18T02:26:14;100427.78;;;11.48;99.92
16120;BME280;12670;53.502;10.252;2023-03-18T02:29:22;100431.56;;;11.44;100.00
16120;BME280;12670;53.502;10.252;2023-03-18T02:32:26;100435.44;;;11.37;100.00
16120;BME280;12670;53.502;10.252;2023-03-18T02:35:30;100429.13;;;11.40;100.00
16120;BME280;12670;53.502;10.252;2023-03-18T02:38:34;100429.44;;;11.34;100.00
16120;BME280;12670;53.502;10.252;2023-03-18T02:41:36;100430.94;;;11.39;100.00
16120;BME280;12670;53.502;10.252;2023-03-18T02:44:44;100436.22;;;11.22;100.00
16120;BME280;12670;53.502;10.252;2023-03-18T02:47:47;100427.94;;;11.28;100.00
16120;BME280;12670;53.502;10.252;2023-03-18T02:50:50;100425.44;;;11.25;100.00
16120;BME280;12670;53.502;10.252;2023-03-18T02:53:57;100429.03;;;11.24;100.00
16120;BME280;12670;53.502;10.252;2023-03-18T02:57:02;100427.63;;;11.17;100.00
16120;BME280;12670;53.502;10.252;2023-03-18T03:00:08;100429.25;;;11.19;100.00
16120;BME280;12670;53.502;10.252;2023-03-18T03:03:11;100421.28;;;11.19;100.00
16120;BME280;12670;53.502;10.252;2023-03-18T03:06:14;100425.06;;;11.15;100.00
16120;BME280;12670;53.502;10.252;2023-03-18T03:09:17;100420.81;;;11.11;100.00
16120;BME280;12670;53.502;10.252;2023-03-18T03:12:20;100424.31;;;11.12;100.00
16120;BME280;12670;53.502;10.252;2023-03-18T03:15:24;100419.41;;;11.04;100.00
16120;BME280;12670;53.502;10.252;2023-03-18T03:18:27;100425.56;;;11.05;100.00
16120;BME280;12670;53.502;10.252;2023-03-18T03:21:31;100429.47;;;10.98;100.00
16120;BME280;12670;53.502;10.252;2023-03-18T03:24:36;100427.44;;;11.03;100.00
16120;BME280;12670;53.502;10.252;2023-03-18T03:27:38;100423.03;;;11.02;100.00
16120;BME280;12670;53.502;10.252;2023-03-18T03:30:43;100425.34;;;10.90;100.00
16120;BME280;12670;53.502;10.252;2023-03-18T03:33:46;100419.84;;;10.95;100.00
16120;BME280;12670;53.502;10.252;2023-03-18T03:36:48;100430.66;;;10.90;100.00
16120;BME280;12670;53.502;10.252;2023-03-18T03:39:51;100425.59;;;10.86;100.00
16120;BME280;12670;53.502;10.252;2023-03-18T03:42:54;100427.25;;;10.88;100.00
16120;BME280;12670;53.502;10.252;2023-03-18T03:45:58;100433.09;;;10.95;100.00
16120;BME280;12670;53.502;10.252;2023-03-18T03:49:01;100429.88;;;10.88;100.00
16120;BME280;12670;53.502;10.252;2023-03-18T03:52:04;100431.38;;;10.94;100.00
16120;BME280;12670;53.502;10.252;2023-03-18T03:55:09;100427.03;;;10.93;100.00
16120;BME280;12670;53.502;10.252;2023-03-18T03:58:12;100423.63;;;10.89;100.00
16120;BME280;12670;53.502;10.252;2023-03-18T04:01:16;100422.09;;;10.85;100.00
16120;BME280;12670;53.502;10.252;2023-03-18T04:04:19;100418.72;;;10.82;100.00
16120;BME280;12670;53.502;10.252;2023-03-18T04:07:22;100418.72;;;10.82;100.00
16120;BME280;12670;53.502;10.252;2023-03-18T04:10:26;100414.19;;;10.84;100.00
16120;BME280;12670;53.502;10.252;2023-03-18T04:13:29;100420.28;;;10.86;100.00
16120;BME280;12670;53.502;10.252;2023-03-18T04:16:33;100416.50;;;10.91;100.00
16120;BME280;12670;53.502;10.252;2023-03-18T04:19:36;100428.09;;;10.89;100.00
16120;BME280;12670;53.502;10.252;2023-03-18T04:22:40;100433.56;;;10.86;100.00
16120;BME280;12670;53.502;10.252;2023-03-18T04:25:43;100434.41;;;10.86;100.00
16120;BME280;12670;53.502;10.252;2023-03-18T04:28:45;100437.72;;;10.91;100.00
16120;BME280;12670;53.502;10.252;2023-03-18T04:31:50;100440.06;;;10.98;100.00
16120;BME280;12670;53.502;10.252;2023-03-18T04:34:52;100436.28;;;10.84;100.00
16120;BME280;12670;53.502;10.252;2023-03-18T04:37:55;100439.56;;;10.89;100.00
16120;BME280;12670;53.502;10.252;2023-03-18T04:40:57;100432.41;;;10.91;100.00
16120;BME280;12670;53.502;10.252;2023-03-18T04:44:00;100448.75;;;10.82;100.00
16120;BME280;12670;53.502;10.252;2023-03-18T04:47:05;100442.47;;;10.85;100.00
16120;BME280;12670;53.502;10.252;2023-03-18T04:50:09;100445.81;;;10.88;100.00
16120;BME280;12670;53.502;10.252;2023-03-18T04:53:12;100440.59;;;10.87;100.00
16120;BME280;12670;53.502;10.252;2023-03-18T04:56:15;100442.47;;;10.85;100.00
16120;BME280;12670;53.502;10.252;2023-03-18T04:59:17;100441.50;;;10.67;100.00
16120;BME280;12670;53.502;10.252;2023-03-18T05:02:21;100433.91;;;10.78;100.00
16120;BME280;12670;53.502;10.252;2023-03-18T05:05:25;100441.56;;;10.84;100.00
16120;BME280;12670;53.502;10.252;2023-03-18T05:08:27;100452.47;;;10.78;100.00
16120;BME280;12670;53.502;10.252;2023-03-18T05:11:30;100466.56;;;10.61;100.00
16120;BME280;12670;53.502;10.252;2023-03-18T05:14:33;100468.84;;;10.69;100.00
16120;BME280;12670;53.502;10.252;2023-03-18T05:17:37;100461.53;;;10.74;100.00
16120;BME280;12670;53.502;10.252;2023-03-18T05:20:41;100456.00;;;10.79;100.00
16120;BME280;12670;53.502;10.252;2023-03-18T05:23:43;100439.09;;;10.81;100.00
16120;BME280;12670;53.502;10.252;2023-03-18T05:26:46;100444.22;;;10.84;100.00
16120;BME280;12670;53.502;10.252;2023-03-18T05:29:49;100439.44;;;10.92;100.00
16120;BME280;12670;53.502;10.252;2023-03-18T05:32:53;100456.31;;;10.91;100.00
16120;BME280;12670;53.502;10.252;2023-03-18T05:35:56;100467.69;;;10.93;100.00
16120;BME280;12670;53.502;10.252;2023-03-18T05:38:59;100482.75;;;10.93;100.00
16120;BME280;12670;53.502;10.252;2023-03-18T05:42:02;100461.25;;;10.80;100.00
16120;BME280;12670;53.502;10.252;2023-03-18T05:45:06;100459.47;;;10.81;100.00
16120;BME280;12670;53.502;10.252;2023-03-18T05:48:10;100470.06;;;10.81;100.00
16120;BME280;12670;53.502;10.252;2023-03-18T05:51:13;100477.00;;;10.83;100.00
16120;BME280;12670;53.502;10.252;2023-03-18T05:54:16;100486.94;;;10.80;100.00
16120;BME280;12670;53.502;10.252;2023-03-18T05:57:18;100496.72;;;10.78;100.00
16120;BME280;12670;53.502;10.252;2023-03-18T06:00:21;100488.38;;;10.68;100.00
16120;BME280;12670;53.502;10.252;2023-03-18T06:03:26;100489.91;;;10.72;100.00
16120;BME280;12670;53.502;10.252;2023-03-18T06:06:29;100489.50;;;10.81;100.00
16120;BME280;12670;53.502;10.252;2023-03-18T06:09:32;100491.91;;;10.67;100.00
16120;BME280;12670;53.502;10.252;2023-03-18T06:12:35;100492.44;;;10.75;100.00
16120;BME280;12670;53.502;10.252;2023-03-18T06:15:37;100498.81;;;10.71;100.00
16120;BME280;12670;53.502;10.252;2023-03-18T06:18:41;100508.84;;;10.83;100.00
16120;BME280;12670;53.502;10.252;2023-03-18T06:21:45;100499.38;;;10.78;100.00
16120;BME280;12670;53.502;10.252;2023-03-18T06:24:47;100505.22;;;10.86;100.00
16120;BME280;12670;53.502;10.252;2023-03-18T06:27:50;100509.59;;;10.68;100.00
16120;BME280;12670;53.502;10.252;2023-03-18T06:30:54;100513.03;;;10.70;100.00
16120;BME280;12670;53.502;10.252;2023-03-18T06:33:58;100511.38;;;10.67;100.00
16120;BME280;12670;53.502;10.252;2023-03-18T06:37:02;100518.72;;;10.61;100.00
16120;BME280;12670;53.502;10.252;2023-03-18T06:40:06;100518.19;;;10.73;100.00
16120;BME280;12670;53.502;10.252;2023-03-18T06:43:09;100517.63;;;10.85;100.00
16120;BME280;12670;53.502;10.252;2023-03-18T06:46:12;100513.75;;;10.92;100.00
16120;BME280;12670;53.502;10.252;2023-03-18T06:49:17;100515.06;;;11.03;100.00
16120;BME280;12670;53.502;10.252;2023-03-18T06:52:19;100512.16;;;11.07;100.00
16120;BME280;12670;53.502;10.252;2023-03-18T06:55:23;100514.13;;;11.04;100.00
16120;BME280;12670;53.502;10.252;2023-03-18T06:58:26;100516.88;;;11.19;100.00
16120;BME280;12670;53.502;10.252;2023-03-18T07:01:28;100522.19;;;11.19;100.00
16120;BME280;12670;53.502;10.252;2023-03-18T07:04:34;100534.25;;;11.27;100.00
16120;BME280;12670;53.502;10.252;2023-03-18T07:07:37;100543.38;;;11.21;100.00
16120;BME280;12670;53.502;10.252;2023-03-18T07:10:40;100545.75;;;11.27;100.00
16120;BME280;12670;53.502;10.252;2023-03-18T07:13:42;100556.19;;;11.30;100.00
16120;BME280;12670;53.502;10.252;2023-03-18T07:16:45;100555.50;;;11.27;100.00
16120;BME280;12670;53.502;10.252;2023-03-18T07:19:49;100561.72;;;11.07;100.00
16120;BME280;12670;53.502;10.252;2023-03-18T07:22:52;100563.22;;;11.31;100.00
16120;BME280;12670;53.502;10.252;2023-03-18T07:25:55;100561.69;;;11.27;100.00
16120;BME280;12670;53.502;10.252;2023-03-18T07:28:57;100569.28;;;11.35;100.00
16120;BME280;12670;53.502;10.252;2023-03-18T07:32:00;100570.69;;;11.42;100.00
16120;BME280;12670;53.502;10.252;2023-03-18T07:35:07;100569.41;;;11.51;100.00
16120;BME280;12670;53.502;10.252;2023-03-18T07:38:11;100559.56;;;11.53;100.00
16120;BME280;12670;53.502;10.252;2023-03-18T07:41:14;100563.78;;;11.57;100.00
16120;BME280;12670;53.502;10.252;2023-03-18T07:44:16;100575.09;;;11.79;100.00
16120;BME280;12670;53.502;10.252;2023-03-18T07:47:19;100570.53;;;11.64;100.00
16120;BME280;12670;53.502;10.252;2023-03-18T07:50:25;100587.59;;;11.77;100.00
16120;BME280;12670;53.502;10.252;2023-03-18T07:53:28;100592.41;;;11.69;100.00
16120;BME280;12670;53.502;10.252;2023-03-18T07:56:30;100591.69;;;11.65;100.00
16120;BME280;12670;53.502;10.252;2023-03-18T07:59:34;100595.75;;;11.55;100.00
16120;BME280;12670;53.502;10.252;2023-03-18T08:02:37;100586.34;;;11.67;100.00
16120;BME280;12670;53.502;10.252;2023-03-18T08:05:41;100588.38;;;11.79;100.00
16120;BME280;12670;53.502;10.252;2023-03-18T08:08:43;100594.72;;;11.58;100.00
16120;BME280;12670;53.502;10.252;2023-03-18T08:11:46;100598.81;;;11.65;100.00
16120;BME280;12670;53.502;10.252;2023-03-18T08:14:48;100600.53;;;11.66;100.00
16120;BME280;12670;53.502;10.252;2023-03-18T08:17:51;100601.75;;;11.59;100.00
16120;BME280;12670;53.502;10.252;2023-03-18T08:20:55;100604.97;;;11.84;100.00
16120;BME280;12670;53.502;10.252;2023-03-18T08:23:58;100610.28;;;11.84;100.00
16120;BME280;12670;53.502;10.252;2023-03-18T08:27:00;100612.44;;;11.95;100.00
16120;BME280;12670;53.502;10.252;2023-03-18T08:30:04;100612.75;;;11.70;100.00
16120;BME280;12670;53.502;10.252;2023-03-18T08:33:07;100615.81;;;11.80;100.00
16120;BME280;12670;53.502;10.252;2023-03-18T08:36:11;100607.75;;;12.00;100.00
16120;BME280;12670;53.502;10.252;2023-03-18T08:39:14;100618.00;;;12.08;100.00
16120;BME280;12670;53.502;10.252;2023-03-18T08:42:17;100626.56;;;11.95;100.00
16120;BME280;12670;53.502;10.252;2023-03-18T08:45:19;100627.75;;;11.90;100.00
16120;BME280;12670;53.502;10.252;2023-03-18T08:48:23;100629.63;;;11.69;100.00
16120;BME280;12670;53.502;10.252;2023-03-18T08:51:27;100636.81;;;11.86;100.00
16120;BME280;12670;53.502;10.252;2023-03-18T08:54:30;100643.47;;;11.94;100.00
16120;BME280;12670;53.502;10.252;2023-03-18T08:57:33;100648.78;;;11.94;100.00
16120;BME280;12670;53.502;10.252;2023-03-18T09:00:38;100646.22;;;11.93;100.00
16120;BME280;12670;53.502;10.252;2023-03-18T09:03:41;100648.50;;;12.00;100.00
16120;BME280;12670;53.502;10.252;2023-03-18T09:06:47;100645.91;;;11.80;100.00
16120;BME280;12670;53.502;10.252;2023-03-18T09:09:50;100653.72;;;11.85;100.00
16120;BME280;12670;53.502;10.252;2023-03-18T09:12:54;100651.06;;;11.85;100.00
16120;BME280;12670;53.502;10.252;2023-03-18T09:15:56;100662.88;;;11.96;100.00
16120;BME280;12670;53.502;10.252;2023-03-18T09:18:59;100663.44;;;12.03;100.00
16120;BME280;12670;53.502;10.252;2023-03-18T09:22:03;100674.00;;;12.05;100.00
16120;BME280;12670;53.502;10.252;2023-03-18T09:25:07;100667.44;;;12.12;100.00
16120;BME280;12670;53.502;10.252;2023-03-18T09:28:10;100675.06;;;12.00;100.00
16120;BME280;12670;53.502;10.252;2023-03-18T09:31:12;100678.38;;;12.06;100.00
16120;BME280;12670;53.502;10.252;2023-03-18T09:34:15;100673.84;;;12.25;100.00
16120;BME280;12670;53.502;10.252;2023-03-18T09:37:20;100689.38;;;12.34;100.00
16120;BME280;12670;53.502;10.252;2023-03-18T09:40:25;100699.03;;;12.18;100.00
16120;BME280;12670;53.502;10.252;2023-03-18T09:43:40;100693.59;;;12.21;100.00
16120;BME280;12670;53.502;10.252;2023-03-18T09:47:01;100698.91;;;12.21;100.00
16120;BME280;12670;53.502;10.252;2023-03-18T09:50:18;100699.34;;;12.12;100.00
16120;BME280;12670;53.502;10.252;2023-03-18T09:53:28;100696.97;;;12.42;100.00
16120;BME280;12670;53.502;10.252;2023-03-18T09:56:35;100699.09;;;12.52;100.00
16120;BME280;12670;53.502;10.252;2023-03-18T09:59:43;100694.72;;;12.51;100.00
16120;BME280;12670;53.502;10.252;2023-03-18T10:02:50;100694.00;;;12.65;100.00
16120;BME280;12670;53.502;10.252;2023-03-18T10:05:57;100700.75;;;12.72;100.00
16120;BME280;12670;53.502;10.252;2023-03-18T10:09:07;100698.31;;;12.85;100.00
16120;BME280;12670;53.502;10.252;2023-03-18T10:12:15;100691.41;;;12.98;100.00
16120;BME280;12670;53.502;10.252;2023-03-18T10:15:23;100700.88;;;13.54;100.00
16120;BME280;12670;53.502;10.252;2023-03-18T10:18:30;100694.66;;;14.49;100.00
16120;BME280;12670;53.502;10.252;2023-03-18T10:21:39;100696.31;;;14.65;100.00
16120;BME280;12670;53.502;10.252;2023-03-18T10:24:50;100700.34;;;14.27;100.00
16120;BME280;12670;53.502;10.252;2023-03-18T10:28:14;100707.06;;;14.94;100.00
16120;BME280;12670;53.502;10.252;2023-03-18T10:31:26;100718.84;;;15.49;95.28
16120;BME280;12670;53.502;10.252;2023-03-18T10:34:39;100722.84;;;15.13;95.45
16120;BME280;12670;53.502;10.252;2023-03-18T10:37:50;100723.66;;;14.99;95.60
16120;BME280;12670;53.502;10.252;2023-03-18T10:41:00;100722.09;;;14.81;99.43
16120;BME280;12670;53.502;10.252;2023-03-18T10:44:09;100721.13;;;14.68;100.00
16120;BME280;12670;53.502;10.252;2023-03-18T10:47:18;100713.91;;;14.54;99.20
16120;BME280;12670;53.502;10.252;2023-03-18T10:50:29;100718.59;;;14.19;99.60
16120;BME280;12670;53.502;10.252;2023-03-18T10:53:38;100721.09;;;14.06;100.00
16120;BME280;12670;53.502;10.252;2023-03-18T10:56:45;100721.88;;;14.08;100.00
16120;BME280;12670;53.502;10.252;2023-03-18T10:59:49;100730.72;;;13.93;100.00
16120;BME280;12670;53.502;10.252;2023-03-18T11:02:53;100730.81;;;13.91;100.00
16120;BME280;12670;53.502;10.252;2023-03-18T11:06:00;100729.09;;;14.06;100.00
16120;BME280;12670;53.502;10.252;2023-03-18T11:09:07;100735.28;;;13.75;100.00
16120;BME280;12670;53.502;10.252;2023-03-18T11:12:16;100731.69;;;14.07;100.00
16120;BME280;12670;53.502;10.252;2023-03-18T11:15:20;100724.50;;;14.55;100.00
16120;BME280;12670;53.502;10.252;2023-03-18T11:18:25;100723.78;;;14.68;99.07
16120;BME280;12670;53.502;10.252;2023-03-18T11:21:28;100726.75;;;14.77;99.34
16120;BME280;12670;53.502;10.252;2023-03-18T11:24:32;100722.47;;;15.19;97.66
16120;BME280;12670;53.502;10.252;2023-03-18T11:27:42;100718.88;;;16.85;91.14
16120;BME280;12670;53.502;10.252;2023-03-18T11:30:48;100729.66;;;17.36;80.79
16120;BME280;12670;53.502;10.252;2023-03-18T11:33:57;100723.41;;;17.61;77.06
16120;BME280;12670;53.502;10.252;2023-03-18T11:37:03;100725.88;;;18.14;80.60
16120;BME280;12670;53.502;10.252;2023-03-18T11:40:18;100718.59;;;19.21;76.65
16120;BME280;12670;53.502;10.252;2023-03-18T11:43:23;100726.38;;;19.59;64.94
16120;BME280;12670;53.502;10.252;2023-03-18T11:46:31;100730.69;;;20.28;66.87
16120;BME280;12670;53.502;10.252;2023-03-18T11:49:36;100732.84;;;21.30;63.57
16120;BME280;12670;53.502;10.252;2023-03-18T11:52:43;100727.25;;;20.37;61.91
16120;BME280;12670;53.502;10.252;2023-03-18T11:55:50;100729.41;;;18.86;64.03
16120;BME280;12670;53.502;10.252;2023-03-18T12:02:38;100732.03;;;18.27;66.64
16120;BME280;12670;53.502;10.252;2023-03-18T12:05:59;100739.81;;;17.44;70.40
16120;BME280;12670;53.502;10.252;2023-03-18T12:09:11;100747.84;;;17.56;68.60
16120;BME280;12670;53.502;10.252;2023-03-18T12:12:37;100742.69;;;17.92;68.20
16120;BME280;12670;53.502;10.252;2023-03-18T12:15:49;100739.88;;;17.93;65.67
16120;BME280;12670;53.502;10.252;2023-03-18T12:19:04;100730.50;;;18.83;63.53
16120;BME280;12670;53.502;10.252;2023-03-18T12:22:42;100734.81;;;19.66;60.58
16120;BME280;12670;53.502;10.252;2023-03-18T12:25:57;100743.09;;;19.29;58.54
16120;BME280;12670;53.502;10.252;2023-03-18T12:29:36;100739.13;;;19.11;62.43
16120;BME280;12670;53.502;10.252;2023-03-18T12:32:49;100754.06;;;18.56;60.98
16120;BME280;12670;53.502;10.252;2023-03-18T12:36:01;100752.19;;;18.69;60.01
16120;BME280;12670;53.502;10.252;2023-03-18T12:39:31;100755.16;;;18.29;59.85
16120;BME280;12670;53.502;10.252;2023-03-18T12:42:58;100751.06;;;19.53;60.72
16120;BME280;12670;53.502;10.252;2023-03-18T12:46:10;100750.28;;;19.40;57.46
16120;BME280;12670;53.502;10.252;2023-03-18T12:49:20;100746.09;;;19.71;55.03
16120;BME280;12670;53.502;10.252;2023-03-18T12:52:28;100752.00;;;20.74;55.43
16120;BME280;12670;53.502;10.252;2023-03-18T12:55:36;100750.88;;;20.33;53.00
16120;BME280;12670;53.502;10.252;2023-03-18T12:58:43;100743.88;;;19.65;54.62
16120;BME280;12670;53.502;10.252;2023-03-18T13:01:55;100743.22;;;19.39;55.45
16120;BME280;12670;53.502;10.252;2023-03-18T13:05:03;100753.16;;;18.68;58.57
16120;BME280;12670;53.502;10.252;2023-03-18T13:08:35;100756.69;;;18.45;59.51
16120;BME280;12670;53.502;10.252;2023-03-18T13:12:01;100755.88;;;18.31;57.88
16120;BME280;12670;53.502;10.252;2023-03-18T13:15:21;100749.22;;;19.42;56.12
16120;BME280;12670;53.502;10.252;2023-03-18T13:18:32;100751.53;;;20.14;55.96
16120;BME280;12670;53.502;10.252;2023-03-18T13:21:41;100751.66;;;19.57;55.37
16120;BME280;12670;53.502;10.252;2023-03-18T13:28:26;100746.50;;;20.21;53.04
16120;BME280;12670;53.502;10.252;2023-03-18T13:31:41;100749.66;;;20.37;51.91
16120;BME280;12670;53.502;10.252;2023-03-18T13:34:59;100759.88;;;21.19;51.80
16120;BME280;12670;53.502;10.252;2023-03-18T13:38:15;100750.19;;;20.63;50.36
16120;BME280;12670;53.502;10.252;2023-03-18T13:41:46;100751.94;;;21.27;52.08
16120;BME280;12670;53.502;10.252;2023-03-18T13:45:00;100749.84;;;22.13;49.32
16120;BME280;12670;53.502;10.252;2023-03-18T13:48:09;100741.44;;;21.24;48.55
16120;BME280;12670;53.502;10.252;2023-03-18T13:51:18;100744.25;;;20.48;50.10
16120;BME280;12670;53.502;10.252;2023-03-18T13:54:33;100745.84;;;21.25;51.03
16120;BME280;12670;53.502;10.252;2023-03-18T13:57:47;100748.19;;;20.22;50.31
16120;BME280;12670;53.502;10.252;2023-03-18T14:01:13;100744.13;;;20.39;51.49
16120;BME280;12670;53.502;10.252;2023-03-18T14:04:43;100737.38;;;20.56;52.68
16120;BME280;12670;53.502;10.252;2023-03-18T14:07:47;100736.56;;;20.21;51.24
16120;BME280;12670;53.502;10.252;2023-03-18T14:14:56;100755.38;;;20.01;52.35
16120;BME280;12670;53.502;10.252;2023-03-18T14:17:58;100745.13;;;19.14;54.13
16120;BME280;12670;53.502;10.252;2023-03-18T14:21:03;100754.03;;;19.04;53.39
16120;BME280;12670;53.502;10.252;2023-03-18T14:24:11;100752.00;;;19.18;53.34
16120;BME280;12670;53.502;10.252;2023-03-18T14:27:17;100750.00;;;19.09;54.29
16120;BME280;12670;53.502;10.252;2023-03-18T14:30:42;100744.28;;;19.25;52.49
16120;BME280;12670;53.502;10.252;2023-03-18T14:33:57;100745.75;;;19.18;51.98
16120;BME280;12670;53.502;10.252;2023-03-18T14:37:25;100741.84;;;19.22;53.13
16120;BME280;12670;53.502;10.252;2023-03-18T14:40:29;100734.16;;;19.51;52.04
16120;BME280;12670;53.502;10.252;2023-03-18T14:43:41;100733.75;;;19.22;51.72
16120;BME280;12670;53.502;10.252;2023-03-18T14:46:49;100724.75;;;19.45;52.04
16120;BME280;12670;53.502;10.252;2023-03-18T14:49:54;100725.16;;;19.63;51.03
16120;BME280;12670;53.502;10.252;2023-03-18T14:53:09;100733.56;;;19.36;50.63
16120;BME280;12670;53.502;10.252;2023-03-18T14:56:16;100734.69;;;18.99;51.21
16120;BME280;12670;53.502;10.252;2023-03-18T14:59:23;100729.69;;;19.05;52.24
16120;BME280;12670;53.502;10.252;2023-03-18T15:02:28;100730.91;;;18.90;52.97
16120;BME280;12670;53.502;10.252;2023-03-18T15:05:35;100734.13;;;18.47;54.33
16120;BME280;12670;53.502;10.252;2023-03-18T15:08:48;100731.31;;;18.49;53.85
16120;BME280;12670;53.502;10.252;2023-03-18T15:11:52;100739.97;;;18.04;54.57
16120;BME280;12670;53.502;10.252;2023-03-18T15:14:57;100745.28;;;18.17;55.68
16120;BME280;12670;53.502;10.252;2023-03-18T15:18:02;100746.53;;;18.00;55.46
16120;BME280;12670;53.502;10.252;2023-03-18T15:21:08;100749.53;;;18.32;57.29
16120;BME280;12670;53.502;10.252;2023-03-18T15:24:17;100742.59;;;18.17;55.48
16120;BME280;12670;53.502;10.252;2023-03-18T15:27:20;100754.59;;;17.88;55.98
16120;BME280;12670;53.502;10.252;2023-03-18T15:30:27;100757.44;;;18.10;56.70
16120;BME280;12670;53.502;10.252;2023-03-18T15:33:35;100750.84;;;18.51;56.20
16120;BME280;12670;53.502;10.252;2023-03-18T15:36:40;100752.03;;;18.47;55.51
16120;BME280;12670;53.502;10.252;2023-03-18T15:39:43;100743.69;;;18.62;56.02
16120;BME280;12670;53.502;10.252;2023-03-18T15:42:46;100747.25;;;18.39;56.24
16120;BME280;12670;53.502;10.252;2023-03-18T15:45:55;100754.38;;;18.27;56.18
16120;BME280;12670;53.502;10.252;2023-03-18T15:49:00;100759.59;;;18.05;54.66
16120;BME280;12670;53.502;10.252;2023-03-18T15:52:07;100763.84;;;17.58;56.50
16120;BME280;12670;53.502;10.252;2023-03-18T15:55:25;100753.13;;;17.32;57.38
16120;BME280;12670;53.502;10.252;2023-03-18T15:58:35;100758.50;;;17.32;56.97
16120;BME280;12670;53.502;10.252;2023-03-18T16:01:39;100765.03;;;17.28;56.37
16120;BME280;12670;53.502;10.252;2023-03-18T16:04:41;100762.34;;;17.16;57.17
16120;BME280;12670;53.502;10.252;2023-03-18T16:07:47;100764.81;;;17.19;57.95